sensor_id;sensor_type;location;lat;lon;timestamp;P1;durP1;ratioP1;P2;durP2;ratioP2
75634;SDS011;64227;48.724;9.104;2023-06-10T00:01:17;3.58;;;3.28;;
75634;SDS011;64227;48.724;9.104;2023-06-10T00:03:43;4.07;;;3.30;;
75634;SDS011;64227;48.724;9.104;2023-06-10T00:06:08;3.38;;;3.08;;
75634;SDS011;64227;48.724;9.104;2023-06-10T00:08:33;3.50;;;3.20;;
75634;SDS011;64227;48.724;9.104;2023-06-10T00:10:59;4.55;;;3.70;;
75634;SDS011;64227;48.724;9.104;2023-06-10T00:13:25;3.65;;;3.17;;
75634;SDS011;64227;48.724;9.104;2023-06-10T00:15:50;3.80;;;3.47;;
75634;SDS011;64227;48.724;9.104;2023-06-10T00:18:15;4.00;;;3.55;;
75634;SDS011;64227;48.724;9.104;2023-06-10T00:20:42;4.10;;;3.40;;
75634;SDS011;64227;48.724;9.104;2023-06-10T00:23:07;3.70;;;3.40;;
75634;SDS011;64227;48.724;9.104;2023-06-10T00:25:34;3.78;;;3.47;;
75634;SDS011;64227;48.724;9.104;2023-06-10T00:27:59;6.72;;;4.07;;
75634;SDS011;64227;48.724;9.104;2023-06-10T00:30:25;5.75;;;3.58;;
75634;SDS011;64227;48.724;9.104;2023-06-10T00:32:51;4.00;;;3.55;;
75634;SDS011;64227;48.724;9.104;2023-06-10T00:35:16;3.75;;;3.38;;
75634;SDS011;64227;48.724;9.104;2023-06-10T00:37:41;4.25;;;3.63;;
75634;SDS011;64227;48.724;9.104;2023-06-10T00:40:07;3.90;;;3.47;;
75634;SDS011;64227;48.724;9.104;2023-06-10T00:42:34;3.92;;;3.08;;
75634;SDS011;64227;48.724;9.104;2023-06-10T00:44:59;3.55;;;3.20;;
75634;SDS011;64227;48.724;9.104;2023-06-10T00:47:25;4.22;;;3.83;;
75634;SDS011;64227;48.724;9.104;2023-06-10T00:49:51;3.78;;;3.47;;
75634;SDS011;64227;48.724;9.104;2023-06-10T00:52:16;4.63;;;3.50;;
75634;SDS011;64227;48.724;9.104;2023-06-10T00:54:44;4.20;;;3.80;;
75634;SDS011;64227;48.724;9.104;2023-06-10T00:57:09;4.60;;;3.60;;
75634;SDS011;64227;48.724;9.104;2023-06-10T00:59:35;4.15;;;3.78;;
75634;SDS011;64227;48.724;9.104;2023-06-10T01:02:00;4.15;;;3.75;;
75634;SDS011;64227;48.724;9.104;2023-06-10T01:04:27;4.07;;;3.67;;
75634;SDS011;64227;48.724;9.104;2023-06-10T01:09:38;4.07;;;3.55;;
75634;SDS011;64227;48.724;9.104;2023-06-10T01:15:13;3.88;;;3.33;;
75634;SDS011;64227;48.724;9.104;2023-06-10T01:18:13;4.78;;;3.80;;
75634;SDS011;64227;48.724;9.104;2023-06-10T01:20:36;4.00;;;3.47;;
75634;SDS011;64227;48.724;9.104;2023-06-10T01:23:04;4.22;;;3.83;;
75634;SDS011;64227;48.724;9.104;2023-06-10T01:25:30;4.93;;;3.72;;
75634;SDS011;64227;48.724;9.104;2023-06-10T01:28:02;4.00;;;3.60;;
75634;SDS011;64227;48.724;9.104;2023-06-10T01:30:31;4.25;;;3.70;;
75634;SDS011;64227;48.724;9.104;2023-06-10T01:33:02;4.00;;;3.60;;
75634;SDS011;64227;48.724;9.104;2023-06-10T01:35:29;5.55;;;4.25;;
75634;SDS011;64227;48.724;9.104;2023-06-10T01:37:55;4.10;;;3.70;;
75634;SDS011;64227;48.724;9.104;2023-06-10T01:40:22;4.30;;;3.90;;
75634;SDS011;64227;48.724;9.104;2023-06-10T01:42:48;4.18;;;3.78;;
75634;SDS011;64227;48.724;9.104;2023-06-10T01:45:13;5.15;;;4.20;;
75634;SDS011;64227;48.724;9.104;2023-06-10T01:47:39;4.20;;;3.80;;
75634;SDS011;64227;48.724;9.104;2023-06-10T01:50:04;3.88;;;3.47;;
75634;SDS011;64227;48.724;9.104;2023-06-10T01:52:30;4.10;;;3.70;;
75634;SDS011;64227;48.724;9.104;2023-06-10T01:54:55;4.22;;;3.60;;
75634;SDS011;64227;48.724;9.104;2023-06-10T01:57:20;5.07;;;3.95;;
75634;SDS011;64227;48.724;9.104;2023-06-10T01:59:46;3.95;;;3.53;;
75634;SDS011;64227;48.724;9.104;2023-06-10T02:02:11;4.70;;;4.00;;
75634;SDS011;64227;48.724;9.104;2023-06-10T02:04:36;4.25;;;3.85;;
75634;SDS011;64227;48.724;9.104;2023-06-10T02:07:02;4.30;;;3.67;;
75634;SDS011;64227;48.724;9.104;2023-06-10T02:09:29;4.35;;;3.75;;
75634;SDS011;64227;48.724;9.104;2023-06-10T02:11:59;4.53;;;4.05;;
75634;SDS011;64227;48.724;9.104;2023-06-10T02:14:25;11.48;;;4.20;;
75634;SDS011;64227;48.724;9.104;2023-06-10T02:16:50;4.45;;;4.05;;
75634;SDS011;64227;48.724;9.104;2023-06-10T02:19:16;4.38;;;3.95;;
75634;SDS011;64227;48.724;9.104;2023-06-10T02:21:42;5.53;;;3.92;;
75634;SDS011;64227;48.724;9.104;2023-06-10T02:24:07;3.90;;;3.42;;
75634;SDS011;64227;48.724;9.104;2023-06-10T02:26:33;4.35;;;3.72;;
75634;SDS011;64227;48.724;9.104;2023-06-10T02:28:58;5.00;;;4.25;;
75634;SDS011;64227;48.724;9.104;2023-06-10T02:31:23;4.45;;;4.03;;
75634;SDS011;64227;48.724;9.104;2023-06-10T02:33:50;4.32;;;3.92;;
75634;SDS011;64227;48.724;9.104;2023-06-10T02:36:15;4.78;;;4.32;;
75634;SDS011;64227;48.724;9.104;2023-06-10T02:38:41;3.75;;;3.45;;
75634;SDS011;64227;48.724;9.104;2023-06-10T02:41:07;4.68;;;4.20;;
75634;SDS011;64227;48.724;9.104;2023-06-10T02:43:32;4.40;;;4.00;;
75634;SDS011;64227;48.724;9.104;2023-06-10T02:45:57;4.43;;;4.03;;
75634;SDS011;64227;48.724;9.104;2023-06-10T02:48:26;3.78;;;3.47;;
75634;SDS011;64227;48.724;9.104;2023-06-10T02:50:52;4.57;;;4.10;;
75634;SDS011;64227;48.724;9.104;2023-06-10T02:53:17;4.18;;;3.78;;
75634;SDS011;64227;48.724;9.104;2023-06-10T02:55:42;4.28;;;3.78;;
75634;SDS011;64227;48.724;9.104;2023-06-10T02:58:08;4.03;;;3.70;;
75634;SDS011;64227;48.724;9.104;2023-06-10T03:00:33;4.45;;;3.75;;
75634;SDS011;64227;48.724;9.104;2023-06-10T03:02:58;5.63;;;3.80;;
75634;SDS011;64227;48.724;9.104;2023-06-10T03:05:28;3.70;;;3.40;;
75634;SDS011;64227;48.724;9.104;2023-06-10T03:07:54;3.95;;;3.58;;
75634;SDS011;64227;48.724;9.104;2023-06-10T03:10:19;4.60;;;3.85;;
75634;SDS011;64227;48.724;9.104;2023-06-10T03:12:45;3.63;;;3.33;;
75634;SDS011;64227;48.724;9.104;2023-06-10T03:15:10;4.03;;;3.63;;
75634;SDS011;64227;48.724;9.104;2023-06-10T03:17:35;3.67;;;3.20;;
75634;SDS011;64227;48.724;9.104;2023-06-10T03:20:01;4.70;;;3.80;;
75634;SDS011;64227;48.724;9.104;2023-06-10T03:22:29;4.80;;;3.53;;
75634;SDS011;64227;48.724;9.104;2023-06-10T03:24:55;3.72;;;3.40;;
75634;SDS011;64227;48.724;9.104;2023-06-10T03:27:22;4.03;;;3.63;;
75634;SDS011;64227;48.724;9.104;2023-06-10T03:29:47;4.35;;;3.70;;
75634;SDS011;64227;48.724;9.104;2023-06-10T03:32:12;4.95;;;3.97;;
75634;SDS011;64227;48.724;9.104;2023-06-10T03:34:38;5.43;;;4.28;;
75634;SDS011;64227;48.724;9.104;2023-06-10T03:37:03;3.65;;;3.35;;
75634;SDS011;64227;48.724;9.104;2023-06-10T03:39:29;3.90;;;3.50;;
75634;SDS011;64227;48.724;9.104;2023-06-10T03:41:54;3.75;;;3.33;;
75634;SDS011;64227;48.724;9.104;2023-06-10T03:44:21;3.90;;;3.33;;
75634;SDS011;64227;48.724;9.104;2023-06-10T03:46:46;4.65;;;3.78;;
75634;SDS011;64227;48.724;9.104;2023-06-10T03:49:12;4.28;;;3.70;;
75634;SDS011;64227;48.724;9.104;2023-06-10T03:51:37;4.03;;;3.63;;
75634;SDS011;64227;48.724;9.104;2023-06-10T03:54:03;3.95;;;3.55;;
75634;SDS011;64227;48.724;9.104;2023-06-10T03:56:28;4.07;;;3.40;;
75634;SDS011;64227;48.724;9.104;2023-06-10T03:58:54;3.65;;;3.28;;
75634;SDS011;64227;48.724;9.104;2023-06-10T04:01:20;5.20;;;4.25;;
75634;SDS011;64227;48.724;9.104;2023-06-10T04:03:46;4.60;;;3.88;;
75634;SDS011;64227;48.724;9.104;2023-06-10T04:06:14;4.30;;;3.90;;
75634;SDS011;64227;48.724;9.104;2023-06-10T04:08:39;3.83;;;3.40;;
75634;SDS011;64227;48.724;9.104;2023-06-10T04:11:05;5.28;;;3.50;;
75634;SDS011;64227;48.724;9.104;2023-06-10T04:13:30;3.88;;;3.45;;
75634;SDS011;64227;48.724;9.104;2023-06-10T04:15:56;4.55;;;3.47;;
75634;SDS011;64227;48.724;9.104;2023-06-10T04:18:21;3.72;;;3.15;;
75634;SDS011;64227;48.724;9.104;2023-06-10T04:20:47;3.80;;;3.22;;
75634;SDS011;64227;48.724;9.104;2023-06-10T04:23:12;3.40;;;3.10;;
75634;SDS011;64227;48.724;9.104;2023-06-10T04:25:37;3.30;;;2.95;;
75634;SDS011;64227;48.724;9.104;2023-06-10T04:28:03;3.25;;;2.95;;
75634;SDS011;64227;48.724;9.104;2023-06-10T04:30:28;3.33;;;3.03;;
75634;SDS011;64227;48.724;9.104;2023-06-10T04:32:53;3.28;;;2.97;;
75634;SDS011;64227;48.724;9.104;2023-06-10T04:35:19;3.90;;;3.10;;
75634;SDS011;64227;48.724;9.104;2023-06-10T04:37:44;4.13;;;3.33;;
75634;SDS011;64227;48.724;9.104;2023-06-10T04:40:10;3.20;;;2.90;;
75634;SDS011;64227;48.724;9.104;2023-06-10T04:42:35;2.58;;;2.38;;
75634;SDS011;64227;48.724;9.104;2023-06-10T04:45:01;2.92;;;2.67;;
75634;SDS011;64227;48.724;9.104;2023-06-10T04:47:28;3.17;;;2.70;;
75634;SDS011;64227;48.724;9.104;2023-06-10T04:49:54;2.85;;;2.47;;
75634;SDS011;64227;48.724;9.104;2023-06-10T04:52:19;2.63;;;2.42;;
75634;SDS011;64227;48.724;9.104;2023-06-10T04:54:44;3.40;;;2.90;;
75634;SDS011;64227;48.724;9.104;2023-06-10T04:57:10;2.80;;;2.38;;
75634;SDS011;64227;48.724;9.104;2023-06-10T04:59:36;5.65;;;3.42;;
75634;SDS011;64227;48.724;9.104;2023-06-10T05:02:03;3.20;;;2.90;;
75634;SDS011;64227;48.724;9.104;2023-06-10T05:04:29;3.28;;;2.75;;
75634;SDS011;64227;48.724;9.104;2023-06-10T05:06:55;3.25;;;2.90;;
75634;SDS011;64227;48.724;9.104;2023-06-10T05:09:20;2.63;;;2.40;;
75634;SDS011;64227;48.724;9.104;2023-06-10T05:11:45;3.17;;;2.88;;
75634;SDS011;64227;48.724;9.104;2023-06-10T05:14:11;3.47;;;2.97;;
75634;SDS011;64227;48.724;9.104;2023-06-10T05:16:36;2.40;;;2.20;;
75634;SDS011;64227;48.724;9.104;2023-06-10T05:19:02;3.08;;;2.65;;
75634;SDS011;64227;48.724;9.104;2023-06-10T05:21:28;2.40;;;2.00;;
75634;SDS011;64227;48.724;9.104;2023-06-10T05:23:53;2.78;;;2.38;;
75634;SDS011;64227;48.724;9.104;2023-06-10T05:26:19;5.32;;;3.50;;
75634;SDS011;64227;48.724;9.104;2023-06-10T05:28:45;2.63;;;2.42;;
75634;SDS011;64227;48.724;9.104;2023-06-10T05:31:10;2.42;;;2.20;;
75634;SDS011;64227;48.724;9.104;2023-06-10T05:33:35;3.83;;;3.25;;
75634;SDS011;64227;48.724;9.104;2023-06-10T05:36:01;3.22;;;2.67;;
75634;SDS011;64227;48.724;9.104;2023-06-10T05:38:26;4.93;;;2.92;;
75634;SDS011;64227;48.724;9.104;2023-06-10T05:40:51;4.72;;;3.20;;
75634;SDS011;64227;48.724;9.104;2023-06-10T05:43:16;5.60;;;2.90;;
75634;SDS011;64227;48.724;9.104;2023-06-10T05:45:42;3.00;;;2.53;;
75634;SDS011;64227;48.724;9.104;2023-06-10T05:48:07;3.00;;;2.70;;
75634;SDS011;64227;48.724;9.104;2023-06-10T05:50:33;3.80;;;2.97;;
75634;SDS011;64227;48.724;9.104;2023-06-10T05:53:03;3.30;;;3.00;;
75634;SDS011;64227;48.724;9.104;2023-06-10T05:55:28;4.65;;;2.65;;
75634;SDS011;64227;48.724;9.104;2023-06-10T05:58:00;3.88;;;3.28;;
75634;SDS011;64227;48.724;9.104;2023-06-10T06:00:26;3.90;;;3.50;;
75634;SDS011;64227;48.724;9.104;2023-06-10T06:02:52;3.40;;;2.97;;
75634;SDS011;64227;48.724;9.104;2023-06-10T06:05:19;3.30;;;3.00;;
75634;SDS011;64227;48.724;9.104;2023-06-10T06:07:44;3.95;;;3.33;;
75634;SDS011;64227;48.724;9.104;2023-06-10T06:10:10;4.00;;;3.53;;
75634;SDS011;64227;48.724;9.104;2023-06-10T06:12:35;3.85;;;3.22;;
75634;SDS011;64227;48.724;9.104;2023-06-10T06:15:00;4.30;;;3.50;;
75634;SDS011;64227;48.724;9.104;2023-06-10T06:17:26;5.43;;;3.90;;
75634;SDS011;64227;48.724;9.104;2023-06-10T06:19:51;4.00;;;3.67;;
75634;SDS011;64227;48.724;9.104;2023-06-10T06:22:16;4.70;;;3.67;;
75634;SDS011;64227;48.724;9.104;2023-06-10T06:24:46;6.05;;;3.55;;
75634;SDS011;64227;48.724;9.104;2023-06-10T06:27:11;4.82;;;3.50;;
75634;SDS011;64227;48.724;9.104;2023-06-10T06:29:37;5.65;;;3.63;;
75634;SDS011;64227;48.724;9.104;2023-06-10T06:32:02;4.35;;;3.47;;
75634;SDS011;64227;48.724;9.104;2023-06-10T06:34:28;4.35;;;3.30;;
75634;SDS011;64227;48.724;9.104;2023-06-10T06:36:53;3.75;;;3.33;;
75634;SDS011;64227;48.724;9.104;2023-06-10T06:39:18;4.32;;;3.70;;
75634;SDS011;64227;48.724;9.104;2023-06-10T06:41:44;4.00;;;3.60;;
75634;SDS011;64227;48.724;9.104;2023-06-10T06:44:09;4.22;;;3.83;;
75634;SDS011;64227;48.724;9.104;2023-06-10T06:46:34;3.85;;;3.45;;
75634;SDS011;64227;48.724;9.104;2023-06-10T06:49:00;4.25;;;3.40;;
75634;SDS011;64227;48.724;9.104;2023-06-10T06:51:25;5.03;;;3.42;;
75634;SDS011;64227;48.724;9.104;2023-06-10T06:53:51;4.70;;;3.60;;
75634;SDS011;64227;48.724;9.104;2023-06-10T06:56:18;4.88;;;3.28;;
75634;SDS011;64227;48.724;9.104;2023-06-10T06:58:44;4.13;;;3.65;;
75634;SDS011;64227;48.724;9.104;2023-06-10T07:01:09;4.97;;;3.50;;
75634;SDS011;64227;48.724;9.104;2023-06-10T07:03:35;3.80;;;3.50;;
75634;SDS011;64227;48.724;9.104;2023-06-10T07:06:00;4.13;;;3.58;;
75634;SDS011;64227;48.724;9.104;2023-06-10T07:08:25;4.43;;;3.33;;
75634;SDS011;64227;48.724;9.104;2023-06-10T07:10:50;3.75;;;3.30;;
75634;SDS011;64227;48.724;9.104;2023-06-10T07:13:16;3.72;;;3.00;;
75634;SDS011;64227;48.724;9.104;2023-06-10T07:15:41;3.42;;;3.10;;
75634;SDS011;64227;48.724;9.104;2023-06-10T07:18:06;3.38;;;3.08;;
75634;SDS011;64227;48.724;9.104;2023-06-10T07:20:32;4.47;;;3.63;;
75634;SDS011;64227;48.724;9.104;2023-06-10T07:22:57;4.20;;;3.60;;
75634;SDS011;64227;48.724;9.104;2023-06-10T07:25:22;4.35;;;3.75;;
75634;SDS011;64227;48.724;9.104;2023-06-10T07:27:48;5.25;;;3.65;;
75634;SDS011;64227;48.724;9.104;2023-06-10T07:30:13;3.88;;;3.47;;
75634;SDS011;64227;48.724;9.104;2023-06-10T07:32:38;3.45;;;3.15;;
75634;SDS011;64227;48.724;9.104;2023-06-10T07:35:06;5.05;;;3.70;;
75634;SDS011;64227;48.724;9.104;2023-06-10T07:37:33;4.32;;;3.30;;
75634;SDS011;64227;48.724;9.104;2023-06-10T07:39:58;3.60;;;3.30;;
75634;SDS011;64227;48.724;9.104;2023-06-10T07:42:23;3.58;;;3.20;;
75634;SDS011;64227;48.724;9.104;2023-06-10T07:44:49;5.32;;;3.92;;
75634;SDS011;64227;48.724;9.104;2023-06-10T07:47:14;4.03;;;3.33;;
75634;SDS011;64227;48.724;9.104;2023-06-10T07:49:39;4.03;;;3.33;;
75634;SDS011;64227;48.724;9.104;2023-06-10T07:52:06;3.80;;;3.40;;
75634;SDS011;64227;48.724;9.104;2023-06-10T07:54:32;3.92;;;3.53;;
75634;SDS011;64227;48.724;9.104;2023-06-10T07:56:57;4.45;;;3.33;;
75634;SDS011;64227;48.724;9.104;2023-06-10T07:59:23;3.58;;;3.22;;
75634;SDS011;64227;48.724;9.104;2023-06-10T08:01:50;4.80;;;3.47;;
75634;SDS011;64227;48.724;9.104;2023-06-10T08:04:15;4.38;;;3.38;;
75634;SDS011;64227;48.724;9.104;2023-06-10T08:06:41;4.75;;;3.80;;
75634;SDS011;64227;48.724;9.104;2023-06-10T08:09:06;3.55;;;2.90;;
75634;SDS011;64227;48.724;9.104;2023-06-10T08:11:32;7.85;;;4.88;;
75634;SDS011;64227;48.724;9.104;2023-06-10T08:13:57;3.70;;;3.40;;
75634;SDS011;64227;48.724;9.104;2023-06-10T08:16:22;3.45;;;3.15;;
75634;SDS011;64227;48.724;9.104;2023-06-10T08:18:48;3.40;;;3.05;;
75634;SDS011;64227;48.724;9.104;2023-06-10T08:21:15;3.10;;;2.80;;
75634;SDS011;64227;48.724;9.104;2023-06-10T08:23:40;6.50;;;3.40;;
75634;SDS011;64227;48.724;9.104;2023-06-10T08:26:06;3.33;;;3.03;;
75634;SDS011;64227;48.724;9.104;2023-06-10T08:28:31;3.63;;;3.33;;
75634;SDS011;64227;48.724;9.104;2023-06-10T08:30:56;3.55;;;3.25;;
75634;SDS011;64227;48.724;9.104;2023-06-10T08:33:21;3.50;;;3.20;;
75634;SDS011;64227;48.724;9.104;2023-06-10T08:35:47;3.67;;;3.15;;
75634;SDS011;64227;48.724;9.104;2023-06-10T08:38:12;3.70;;;3.40;;
75634;SDS011;64227;48.724;9.104;2023-06-10T08:40:37;3.83;;;3.50;;
75634;SDS011;64227;48.724;9.104;2023-06-10T08:43:05;3.97;;;3.58;;
75634;SDS011;64227;48.724;9.104;2023-06-10T08:45:32;6.30;;;3.30;;
75634;SDS011;64227;48.724;9.104;2023-06-10T08:48:00;3.38;;;3.08;;
75634;SDS011;64227;48.724;9.104;2023-06-10T08:50:29;3.70;;;3.22;;
75634;SDS011;64227;48.724;9.104;2023-06-10T08:52:57;3.58;;;3.28;;
75634;SDS011;64227;48.724;9.104;2023-06-10T08:55:32;3.55;;;3.25;;
75634;SDS011;64227;48.724;9.104;2023-06-10T08:58:00;3.70;;;3.40;;
75634;SDS011;64227;48.724;9.104;2023-06-10T09:00:26;4.20;;;3.78;;
75634;SDS011;64227;48.724;9.104;2023-06-10T09:02:52;3.22;;;2.92;;
75634;SDS011;64227;48.724;9.104;2023-06-10T09:05:18;3.08;;;2.88;;
75634;SDS011;64227;48.724;9.104;2023-06-10T09:07:45;5.45;;;3.30;;
75634;SDS011;64227;48.724;9.104;2023-06-10T09:10:11;3.33;;;3.03;;
75634;SDS011;64227;48.724;9.104;2023-06-10T09:12:37;3.00;;;2.63;;
75634;SDS011;64227;48.724;9.104;2023-06-10T09:15:05;3.40;;;2.90;;
75634;SDS011;64227;48.724;9.104;2023-06-10T09:17:32;3.20;;;3.00;;
75634;SDS011;64227;48.724;9.104;2023-06-10T09:19:59;3.55;;;2.83;;
75634;SDS011;64227;48.724;9.104;2023-06-10T09:24:51;3.50;;;3.17;;
75634;SDS011;64227;48.724;9.104;2023-06-10T09:27:17;3.03;;;2.83;;
75634;SDS011;64227;48.724;9.104;2023-06-10T09:29:46;3.05;;;2.83;;
75634;SDS011;64227;48.724;9.104;2023-06-10T09:32:13;4.22;;;2.75;;
75634;SDS011;64227;48.724;9.104;2023-06-10T09:34:39;2.88;;;2.63;;
75634;SDS011;64227;48.724;9.104;2023-06-10T09:37:04;4.20;;;2.92;;
75634;SDS011;64227;48.724;9.104;2023-06-10T09:39:30;3.03;;;2.70;;
75634;SDS011;64227;48.724;9.104;2023-06-10T09:41:55;3.15;;;2.92;;
75634;SDS011;64227;48.724;9.104;2023-06-10T09:44:20;3.35;;;2.97;;
75634;SDS011;64227;48.724;9.104;2023-06-10T09:46:47;3.92;;;3.00;;
75634;SDS011;64227;48.724;9.104;2023-06-10T09:49:14;3.30;;;3.00;;
75634;SDS011;64227;48.724;9.104;2023-06-10T09:51:52;3.92;;;2.72;;
75634;SDS011;64227;48.724;9.104;2023-06-10T09:54:19;3.70;;;3.00;;
75634;SDS011;64227;48.724;9.104;2023-06-10T09:56:48;3.38;;;2.95;;
75634;SDS011;64227;48.724;9.104;2023-06-10T09:59:15;3.17;;;2.88;;
75634;SDS011;64227;48.724;9.104;2023-06-10T10:01:40;2.85;;;2.65;;
75634;SDS011;64227;48.724;9.104;2023-06-10T10:04:06;2.85;;;2.65;;
75634;SDS011;64227;48.724;9.104;2023-06-10T10:06:31;2.75;;;2.55;;
75634;SDS011;64227;48.724;9.104;2023-06-10T10:08:57;2.85;;;2.65;;
75634;SDS011;64227;48.724;9.104;2023-06-10T10:11:22;3.10;;;2.78;;
75634;SDS011;64227;48.724;9.104;2023-06-10T10:13:49;4.25;;;2.47;;
75634;SDS011;64227;48.724;9.104;2023-06-10T10:16:19;2.60;;;2.40;;
75634;SDS011;64227;48.724;9.104;2023-06-10T10:18:54;6.75;;;2.55;;
75634;SDS011;64227;48.724;9.104;2023-06-10T10:21:24;3.33;;;2.45;;
75634;SDS011;64227;48.724;9.104;2023-06-10T10:26:43;2.95;;;2.40;;
75634;SDS011;64227;48.724;9.104;2023-06-10T10:29:23;3.38;;;2.75;;
75634;SDS011;64227;48.724;9.104;2023-06-10T10:31:56;2.33;;;2.13;;
75634;SDS011;64227;48.724;9.104;2023-06-10T10:34:27;2.60;;;2.40;;
75634;SDS011;64227;48.724;9.104;2023-06-10T10:37:00;3.78;;;2.30;;
75634;SDS011;64227;48.724;9.104;2023-06-10T10:39:26;4.10;;;2.65;;
75634;SDS011;64227;48.724;9.104;2023-06-10T10:41:53;4.68;;;2.50;;
75634;SDS011;64227;48.724;9.104;2023-06-10T10:44:19;3.80;;;3.38;;
75634;SDS011;64227;48.724;9.104;2023-06-10T10:46:48;3.08;;;2.78;;
75634;SDS011;64227;48.724;9.104;2023-06-10T10:49:14;3.20;;;2.53;;
75634;SDS011;64227;48.724;9.104;2023-06-10T10:51:56;2.63;;;2.42;;
75634;SDS011;64227;48.724;9.104;2023-06-10T10:54:29;2.92;;;2.72;;
75634;SDS011;64227;48.724;9.104;2023-06-10T10:57:17;3.13;;;2.70;;
75634;SDS011;64227;48.724;9.104;2023-06-10T10:59:56;2.67;;;2.42;;
75634;SDS011;64227;48.724;9.104;2023-06-10T11:04:56;3.83;;;2.95;;
75634;SDS011;64227;48.724;9.104;2023-06-10T11:07:22;3.10;;;2.80;;
75634;SDS011;64227;48.724;9.104;2023-06-10T11:09:59;3.10;;;2.80;;
75634;SDS011;64227;48.724;9.104;2023-06-10T11:12:41;3.45;;;2.97;;
75634;SDS011;64227;48.724;9.104;2023-06-10T11:15:07;3.38;;;3.05;;
75634;SDS011;64227;48.724;9.104;2023-06-10T11:17:33;3.72;;;2.95;;
75634;SDS011;64227;48.724;9.104;2023-06-10T11:19:59;3.45;;;3.15;;
75634;SDS011;64227;48.724;9.104;2023-06-10T11:22:25;2.90;;;2.70;;
75634;SDS011;64227;48.724;9.104;2023-06-10T11:24:50;3.17;;;2.88;;
75634;SDS011;64227;48.724;9.104;2023-06-10T11:27:22;3.53;;;2.90;;
75634;SDS011;64227;48.724;9.104;2023-06-10T11:32:31;3.35;;;2.60;;
75634;SDS011;64227;48.724;9.104;2023-06-10T11:34:57;2.90;;;2.65;;
75634;SDS011;64227;48.724;9.104;2023-06-10T11:37:23;2.92;;;2.50;;
75634;SDS011;64227;48.724;9.104;2023-06-10T11:39:52;3.17;;;2.70;;
75634;SDS011;64227;48.724;9.104;2023-06-10T11:42:18;2.60;;;2.40;;
75634;SDS011;64227;48.724;9.104;2023-06-10T11:44:48;3.80;;;2.65;;
75634;SDS011;64227;48.724;9.104;2023-06-10T11:47:17;3.05;;;2.85;;
75634;SDS011;64227;48.724;9.104;2023-06-10T11:49:43;3.00;;;2.80;;
75634;SDS011;64227;48.724;9.104;2023-06-10T11:52:08;2.80;;;2.60;;
75634;SDS011;64227;48.724;9.104;2023-06-10T11:54:34;3.22;;;2.92;;
75634;SDS011;64227;48.724;9.104;2023-06-10T11:56:59;3.42;;;2.80;;
75634;SDS011;64227;48.724;9.104;2023-06-10T11:59:33;3.45;;;2.72;;
75634;SDS011;64227;48.724;9.104;2023-06-10T12:01:59;4.55;;;2.92;;
75634;SDS011;64227;48.724;9.104;2023-06-10T12:04:24;2.70;;;2.50;;
75634;SDS011;64227;48.724;9.104;2023-06-10T12:06:51;3.50;;;2.53;;
75634;SDS011;64227;48.724;9.104;2023-06-10T12:09:28;2.95;;;2.75;;
75634;SDS011;64227;48.724;9.104;2023-06-10T12:20:03;2.72;;;2.53;;
75634;SDS011;64227;48.724;9.104;2023-06-10T12:22:39;2.60;;;2.40;;
75634;SDS011;64227;48.724;9.104;2023-06-10T12:25:07;2.80;;;2.60;;
75634;SDS011;64227;48.724;9.104;2023-06-10T12:27:33;4.05;;;2.50;;
75634;SDS011;64227;48.724;9.104;2023-06-10T12:30:00;3.55;;;2.42;;
75634;SDS011;64227;48.724;9.104;2023-06-10T12:35:05;2.88;;;2.50;;
75634;SDS011;64227;48.724;9.104;2023-06-10T12:37:32;3.17;;;2.40;;
75634;SDS011;64227;48.724;9.104;2023-06-10T12:39:59;2.88;;;2.67;;
75634;SDS011;64227;48.724;9.104;2023-06-10T12:44:54;2.70;;;2.50;;
75634;SDS011;64227;48.724;9.104;2023-06-10T12:47:21;2.95;;;2.35;;
75634;SDS011;64227;48.724;9.104;2023-06-10T12:49:56;3.58;;;2.65;;
75634;SDS011;64227;48.724;9.104;2023-06-10T12:52:21;3.10;;;2.58;;
75634;SDS011;64227;48.724;9.104;2023-06-10T12:54:47;3.08;;;2.88;;
75634;SDS011;64227;48.724;9.104;2023-06-10T12:57:12;4.78;;;2.83;;
75634;SDS011;64227;48.724;9.104;2023-06-10T12:59:37;3.83;;;2.90;;
75634;SDS011;64227;48.724;9.104;2023-06-10T13:02:03;5.82;;;3.13;;
75634;SDS011;64227;48.724;9.104;2023-06-10T13:04:28;3.03;;;2.72;;
75634;SDS011;64227;48.724;9.104;2023-06-10T13:06:54;2.53;;;2.33;;
75634;SDS011;64227;48.724;9.104;2023-06-10T13:09:19;2.85;;;2.65;;
75634;SDS011;64227;48.724;9.104;2023-06-10T13:11:44;3.00;;;2.70;;
75634;SDS011;64227;48.724;9.104;2023-06-10T13:14:10;3.30;;;2.50;;
75634;SDS011;64227;48.724;9.104;2023-06-10T13:16:35;3.83;;;2.67;;
75634;SDS011;64227;48.724;9.104;2023-06-10T13:21:30;2.65;;;2.10;;
75634;SDS011;64227;48.724;9.104;2023-06-10T13:23:55;2.97;;;2.70;;
75634;SDS011;64227;48.724;9.104;2023-06-10T13:26:20;2.60;;;2.40;;
75634;SDS011;64227;48.724;9.104;2023-06-10T13:28:46;2.28;;;2.08;;
75634;SDS011;64227;48.724;9.104;2023-06-10T13:31:12;2.50;;;2.30;;
75634;SDS011;64227;48.724;9.104;2023-06-10T13:33:37;2.97;;;2.30;;
75634;SDS011;64227;48.724;9.104;2023-06-10T13:36:03;2.03;;;1.92;;
75634;SDS011;64227;48.724;9.104;2023-06-10T13:38:29;2.83;;;2.10;;
75634;SDS011;64227;48.724;9.104;2023-06-10T13:40:54;5.10;;;2.42;;
75634;SDS011;64227;48.724;9.104;2023-06-10T13:43:19;2.97;;;2.65;;
75634;SDS011;64227;48.724;9.104;2023-06-10T13:45:45;3.25;;;2.63;;
75634;SDS011;64227;48.724;9.104;2023-06-10T13:48:10;2.95;;;2.35;;
75634;SDS011;64227;48.724;9.104;2023-06-10T13:50:37;2.50;;;2.40;;
75634;SDS011;64227;48.724;9.104;2023-06-10T13:53:02;2.80;;;2.60;;
75634;SDS011;64227;48.724;9.104;2023-06-10T13:55:27;2.58;;;2.38;;
75634;SDS011;64227;48.724;9.104;2023-06-10T13:57:53;2.40;;;2.25;;
75634;SDS011;64227;48.724;9.104;2023-06-10T14:00:18;3.85;;;2.67;;
75634;SDS011;64227;48.724;9.104;2023-06-10T14:02:44;3.13;;;2.50;;
75634;SDS011;64227;48.724;9.104;2023-06-10T14:05:09;2.60;;;2.40;;
75634;SDS011;64227;48.724;9.104;2023-06-10T14:07:35;3.83;;;2.40;;
75634;SDS011;64227;48.724;9.104;2023-06-10T14:10:02;2.75;;;2.47;;
75634;SDS011;64227;48.724;9.104;2023-06-10T14:12:27;2.70;;;2.50;;
75634;SDS011;64227;48.724;9.104;2023-06-10T14:14:52;3.05;;;2.20;;
75634;SDS011;64227;48.724;9.104;2023-06-10T14:17:18;2.72;;;2.53;;
75634;SDS011;64227;48.724;9.104;2023-06-10T14:19:43;2.00;;;1.90;;
75634;SDS011;64227;48.724;9.104;2023-06-10T14:22:08;3.35;;;2.17;;
75634;SDS011;64227;48.724;9.104;2023-06-10T14:24:34;2.92;;;2.40;;
75634;SDS011;64227;48.724;9.104;2023-06-10T14:27:01;2.13;;;2.03;;
75634;SDS011;64227;48.724;9.104;2023-06-10T14:29:26;2.67;;;2.47;;
75634;SDS011;64227;48.724;9.104;2023-06-10T14:31:54;2.40;;;2.20;;
75634;SDS011;64227;48.724;9.104;2023-06-10T14:34:19;2.25;;;2.15;;
75634;SDS011;64227;48.724;9.104;2023-06-10T14:36:45;2.97;;;2.60;;
75634;SDS011;64227;48.724;9.104;2023-06-10T14:39:10;2.50;;;2.30;;
75634;SDS011;64227;48.724;9.104;2023-06-10T14:41:35;2.05;;;1.92;;
75634;SDS011;64227;48.724;9.104;2023-06-10T14:44:01;6.93;;;2.40;;
75634;SDS011;64227;48.724;9.104;2023-06-10T14:46:26;2.45;;;2.20;;
75634;SDS011;64227;48.724;9.104;2023-06-10T14:48:51;2.20;;;2.10;;
75634;SDS011;64227;48.724;9.104;2023-06-10T14:51:17;2.47;;;2.28;;
75634;SDS011;64227;48.724;9.104;2023-06-10T14:53:42;2.80;;;2.60;;
75634;SDS011;64227;48.724;9.104;2023-06-10T14:56:08;2.88;;;2.40;;
75634;SDS011;64227;48.724;9.104;2023-06-10T14:58:33;2.92;;;2.35;;
75634;SDS011;64227;48.724;9.104;2023-06-10T15:00:58;2.83;;;2.30;;
75634;SDS011;64227;48.724;9.104;2023-06-10T15:03:24;3.45;;;2.97;;
75634;SDS011;64227;48.724;9.104;2023-06-10T15:05:49;3.00;;;2.63;;
75634;SDS011;64227;48.724;9.104;2023-06-10T15:08:14;3.17;;;2.60;;
75634;SDS011;64227;48.724;9.104;2023-06-10T15:10:40;4.13;;;2.58;;
75634;SDS011;64227;48.724;9.104;2023-06-10T15:13:05;2.88;;;2.67;;
75634;SDS011;64227;48.724;9.104;2023-06-10T15:15:30;2.60;;;2.40;;